Time;durP1;ratioP1;P1;durP2;ratioP2;P2;SDS_P1;SDS_P2;PMS_P1;PMS_P2;Temp;Humidity;BMP_temperature;BMP_pressure;BME280_temperature;BME280_humidity;BME280_pressure;Samples;Min_cycle;Max_cycle;Signal;HPM_P1;HPM_P2
2022/04/13 00:01:07;;;;;;;3.57;2.47;;;10.90;77.90;;;;;;5056668;28;20214;-46
2022/04/13 00:03:36;;;;;;;2.73;2.53;;;10.90;77.90;;;;;;5046665;28;20938;-43
2022/04/13 00:06:04;;;;;;;4.73;2.13;;;10.90;78.10;;;;;;5055873;28;20210;-44
2022/04/13 00:08:31;;;;;;;4.37;2.43;;;10.90;78.30;;;;;;5039627;28;20191;-46
2022/04/13 00:11:00;;;;;;;4.87;2.43;;;10.90;78.40;;;;;;5054657;28;20233;-46
2022/04/13 00:13:27;;;;;;;4.83;2.57;;;10.90;78.60;;;;;;5049304;28;20934;-46
2022/04/13 00:15:54;;;;;;;5.87;3.17;;;10.80;79.20;;;;;;5052182;28;20245;-45
2022/04/13 00:18:21;;;;;;;3.37;2.37;;;;;;;;;;5043141;28;20194;-47
2022/04/13 00:20:49;;;;;;;3.43;2.33;;;10.70;99.90;;;;;;5055154;28;20218;-46
2022/04/13 00:23:16;;;;;;;4.33;2.73;;;10.80;79.70;;;;;;5037289;28;20210;-46
2022/04/13 00:25:44;;;;;;;3.73;2.77;;;10.70;79.60;;;;;;5056912;28;20879;-48
2022/04/13 00:28:11;;;;;;;3.23;2.57;;;10.80;88.00;;;;;;5047460;28;20207;-44
2022/04/13 00:30:38;;;;;;;3.53;2.50;;;10.80;88.70;;;;;;5053243;28;20229;-46
2022/04/13 00:33:05;;;;;;;2.50;2.30;;;10.70;84.10;;;;;;5050735;28;20199;-50
2022/04/13 00:35:32;;;;;;;3.90;2.57;;;10.70;80.00;;;;;;5051046;28;20218;-45
2022/04/13 00:38:00;;;;;;;2.80;2.50;;;10.70;79.70;;;;;;5045470;28;20207;-45
2022/04/13 00:40:27;;;;;;;2.83;2.40;;;10.70;79.90;;;;;;5047972;28;20222;-45
2022/04/13 00:42:54;;;;;;;4.13;2.60;;;10.70;80.20;;;;;;5058335;28;20195;-44
2022/04/13 00:45:20;;;;;;;4.37;2.63;;;10.70;80.30;;;;;;5053535;28;20210;-46
2022/04/13 00:47:48;;;;;;;3.43;2.57;;;10.60;80.50;;;;;;5043597;28;20548;-46
2022/04/13 00:50:15;;;;;;;5.03;2.90;;;10.60;93.20;;;;;;5058386;28;20657;-45
2022/04/13 00:52:46;;;;;;;2.80;2.33;;;10.60;81.00;;;;;;5047685;28;20978;-44
2022/04/13 00:55:15;;;;;;;3.00;2.70;;;10.60;81.30;;;;;;5047420;28;20272;-47
2022/04/13 00:57:43;;;;;;;4.00;2.70;;;10.60;81.40;;;;;;5054376;28;20214;-50
2022/04/13 01:00:12;;;;;;;3.47;2.73;;;10.60;81.30;;;;;;5055246;28;20255;-46
2022/04/13 01:02:42;;;;;;;4.10;3.00;;;10.60;81.50;;;;;;5042505;28;20294;-43
2022/04/13 01:05:10;;;;;;;6.50;2.87;;;10.50;81.80;;;;;;5058219;28;20206;-47
2022/04/13 01:07:36;;;;;;;5.03;2.73;;;10.50;81.70;;;;;;5050848;28;20211;-44
2022/04/13 01:10:06;;;;;;;6.00;3.20;;;10.50;81.80;;;;;;5047980;28;20207;-46
2022/04/13 01:12:35;;;;;;;4.33;2.47;;;10.50;82.30;;;;;;5042058;28;20286;-46
2022/04/13 01:15:02;;;;;;;3.83;2.90;;;10.50;82.20;;;;;;5054793;28;20703;-45
2022/04/13 01:17:29;;;;;;;4.70;2.53;;;10.50;82.20;;;;;;5051423;28;20227;-45
2022/04/13 01:19:56;;;;;;;3.57;3.10;;;10.50;82.50;;;;;;5060931;28;20203;-45
2022/04/13 01:22:25;;;;;;;3.90;3.27;;;10.50;82.70;;;;;;5041740;28;20861;-45
2022/04/13 01:24:52;;;;;;;5.27;3.70;;;10.50;82.80;;;;;;5043402;28;20568;-46
2022/04/13 01:27:19;;;;;;;3.63;3.17;;;10.50;82.90;;;;;;5045459;28;20199;-46
2022/04/13 01:29:48;;;;;;;3.13;2.77;;;10.50;83.10;;;;;;5053408;28;20711;-45
2022/04/13 01:32:15;;;;;;;4.40;3.27;;;10.50;83.50;;;;;;5051209;28;20212;-48
2022/04/13 01:34:48;;;;;;;6.67;3.70;;;10.50;83.60;;;;;;5045544;28;20229;-46
2022/04/13 01:37:16;;;;;;;4.47;3.00;;;10.50;83.50;;;;;;5054670;28;20199;-47
2022/04/13 01:39:44;;;;;;;4.47;3.30;;;10.50;83.70;;;;;;5041648;28;21423;-43
2022/04/13 01:42:11;;;;;;;3.60;3.20;;;10.50;83.90;;;;;;5056417;28;20307;-48
2022/04/13 01:44:41;;;;;;;3.60;3.30;;;10.50;84.00;;;;;;5053324;28;20951;-48
2022/04/13 01:47:09;;;;;;;4.23;3.00;;;10.50;84.10;;;;;;5044382;28;20208;-44
2022/04/13 01:49:36;;;;;;;4.23;3.30;;;10.40;84.30;;;;;;5039292;28;20297;-46
2022/04/13 01:52:03;;;;;;;5.03;3.17;;;10.50;84.10;;;;;;5050507;28;20249;-45
2022/04/13 01:54:29;;;;;;;4.73;3.30;;;10.50;83.80;;;;;;5041602;28;20211;-45
2022/04/13 01:56:58;;;;;;;4.47;3.10;;;10.60;83.80;;;;;;5053159;28;20199;-45
2022/04/13 01:59:25;;;;;;;4.83;3.33;;;10.50;83.90;;;;;;5044300;28;20285;-45
2022/04/13 02:01:52;;;;;;;4.73;3.43;;;10.50;84.00;;;;;;5056799;28;20233;-47
2022/04/13 02:04:20;;;;;;;5.97;3.70;;;10.50;84.00;;;;;;5050149;28;20205;-46
2022/04/13 02:06:47;;;;;;;3.97;2.90;;;10.60;84.30;;;;;;5053345;28;20194;-43
2022/04/13 02:09:14;;;;;;;4.23;3.43;;;10.60;84.50;;;;;;5047535;28;20210;-47
2022/04/13 02:11:41;;;;;;;4.73;3.27;;;10.50;84.50;;;;;;5055863;28;21118;-44
2022/04/13 02:14:09;;;;;;;4.77;3.40;;;10.60;84.30;;;;;;5047134;28;20206;-47
2022/04/13 02:16:37;;;;;;;4.47;3.33;;;10.60;84.50;;;;;;5043342;28;20935;-47
2022/04/13 02:19:06;;;;;;;4.73;3.37;;;10.60;84.80;;;;;;5048691;28;20195;-47
2022/04/13 02:21:33;;;;;;;4.10;3.47;;;10.60;85.00;;;;;;5041423;28;20886;-51
2022/04/13 02:24:00;;;;;;;5.27;3.50;;;10.50;85.00;;;;;;5047867;28;20563;-49
2022/04/13 02:26:27;;;;;;;5.40;3.53;;;10.50;85.10;;;;;;5040709;28;20227;-49
2022/04/13 02:28:54;;;;;;;4.07;3.10;;;10.50;85.50;;;;;;5054375;28;20196;-49
2022/04/13 02:31:22;;;;;;;5.37;3.30;;;10.50;85.80;;;;;;5037903;28;20225;-50
2022/04/13 02:33:53;;;;;;;4.30;3.43;;;10.50;86.40;;;;;;5062732;28;20959;-46
2022/04/13 02:36:20;;;;;;;3.63;3.20;;;10.40;86.40;;;;;;5036167;28;20226;-46
2022/04/13 02:38:46;;;;;;;5.33;3.37;;;10.40;86.80;;;;;;5049375;28;20225;-50
2022/04/13 02:41:13;;;;;;;4.70;3.30;;;10.40;86.70;;;;;;5042287;28;20219;-45
2022/04/13 02:43:40;;;;;;;6.47;3.77;;;10.40;86.90;;;;;;5058890;28;20182;-50
2022/04/13 02:46:08;;;;;;;6.13;3.20;;;10.40;87.30;;;;;;5049071;28;20192;-48
2022/04/13 02:48:36;;;;;;;3.90;3.40;;;10.30;87.50;;;;;;5041516;28;20202;-45
2022/04/13 02:51:03;;;;;;;4.13;3.43;;;10.30;87.70;;;;;;5046689;28;20234;-44
2022/04/13 02:53:31;;;;;;;4.40;3.60;;;10.30;89.70;;;;;;5047544;28;20198;-48
2022/04/13 02:55:58;;;;;;;4.47;3.67;;;10.30;88.10;;;;;;5042121;28;20223;-47
2022/04/13 02:58:24;;;;;;;5.77;3.20;;;10.30;88.60;;;;;;5057844;28;20204;-46
2022/04/13 03:00:52;;;;;;;5.23;3.17;;;10.30;88.40;;;;;;5060858;28;20228;-49
2022/04/13 03:03:21;;;;;;;3.60;3.30;;;10.30;88.60;;;;;;5034380;28;20203;-44
2022/04/13 03:05:49;;;;;;;5.00;3.60;;;10.30;89.40;;;;;;5055006;28;20558;-50
2022/04/13 03:08:16;;;;;;;5.27;3.40;;;10.30;89.50;;;;;;5039119;28;20202;-44
2022/04/13 03:10:44;;;;;;;4.67;3.53;;;10.20;89.50;;;;;;5049515;28;20310;-49
2022/04/13 03:13:11;;;;;;;4.33;3.50;;;10.20;90.00;;;;;;5050382;28;20207;-44
2022/04/13 03:15:38;;;;;;;4.50;3.50;;;10.20;90.10;;;;;;5052789;28;20927;-49
2022/04/13 03:18:05;;;;;;;3.80;3.50;;;10.20;90.30;;;;;;5039656;28;20207;-46
2022/04/13 03:20:33;;;;;;;6.70;3.43;;;10.20;90.30;;;;;;5054826;28;20297;-49
2022/04/13 03:23:01;;;;;;;6.50;3.87;;;10.20;90.30;;;;;;5048555;28;20199;-49
2022/04/13 03:25:28;;;;;;;5.63;3.90;;;10.20;90.50;;;;;;5051457;28;20191;-47
2022/04/13 03:27:55;;;;;;;6.50;3.33;;;10.20;90.60;;;;;;5046333;28;20206;-49
2022/04/13 03:30:23;;;;;;;5.37;3.37;;;10.20;90.70;;;;;;5054995;28;20199;-48
2022/04/13 03:32:51;;;;;;;4.43;3.60;;;10.20;90.70;;;;;;5042517;28;20248;-45
2022/04/13 03:35:18;;;;;;;5.90;3.60;;;10.20;90.90;;;;;;5058929;28;20222;-50
2022/04/13 03:37:45;;;;;;;5.03;3.40;;;10.10;91.00;;;;;;5051470;28;20203;-48
2022/04/13 03:40:13;;;;;;;6.67;3.73;;;10.10;91.80;;;;;;5049174;28;20928;-49
2022/04/13 03:42:42;;;;;;;5.90;3.50;;;10.10;91.30;;;;;;5047815;28;20210;-47
2022/04/13 03:45:11;;;;;;;5.73;3.87;;;10.10;91.50;;;;;;5055828;28;20191;-48
2022/04/13 03:47:39;;;;;;;5.23;3.70;;;10.10;93.30;;;;;;5039198;28;20233;-47
2022/04/13 03:50:06;;;;;;;6.67;3.93;;;10.00;91.70;;;;;;5047876;28;21962;-44
2022/04/13 03:52:33;;;;;;;6.03;3.60;;;10.00;92.60;;;;;;5058081;28;20203;-44
2022/04/13 03:55:00;;;;;;;4.23;3.83;;;10.00;91.90;;;;;;5043274;28;20281;-44
2022/04/13 03:57:28;;;;;;;4.50;3.50;;;10.00;92.10;;;;;;5057677;28;20230;-46
2022/04/13 03:59:55;;;;;;;5.93;3.73;;;10.00;92.30;;;;;;5047480;28;20232;-44
2022/04/13 04:02:22;;;;;;;5.93;3.73;;;10.00;92.40;;;;;;5032448;28;20883;-43
2022/04/13 04:04:48;;;;;;;6.30;3.50;;;10.00;92.40;;;;;;5056074;28;20202;-48
2022/04/13 04:07:15;;;;;;;5.47;3.30;;;10.00;92.60;;;;;;5054425;28;20199;-46
2022/04/13 04:09:42;;;;;;;4.10;3.63;;;10.00;92.70;;;;;;5053580;28;20206;-47
2022/04/13 04:12:10;;;;;;;4.13;3.73;;;10.00;92.90;;;;;;5041257;28;20226;-45
2022/04/13 04:14:39;;;;;;;7.50;4.30;;;10.00;93.00;;;;;;5051578;28;20202;-45
2022/04/13 04:17:06;;;;;;;6.23;4.27;;;10.00;93.30;;;;;;5051258;28;20711;-44
2022/04/13 04:19:34;;;;;;;6.40;4.07;;;9.90;93.30;;;;;;5038128;28;20195;-46
2022/04/13 04:22:00;;;;;;;6.43;3.73;;;9.90;93.60;;;;;;5047482;28;20226;-42
2022/04/13 04:24:27;;;;;;;4.97;3.50;;;9.90;93.60;;;;;;5056142;28;20191;-43
2022/04/13 04:26:54;;;;;;;6.57;3.70;;;9.90;93.70;;;;;;5049965;28;20321;-49
2022/04/13 04:29:22;;;;;;;4.33;3.77;;;9.90;93.90;;;;;;5049264;28;20192;-45
2022/04/13 04:31:50;;;;;;;10.33;3.93;;;9.80;94.00;;;;;;5057199;28;20285;-46
2022/04/13 04:34:19;;;;;;;6.27;3.90;;;9.80;94.20;;;;;;5038553;28;20561;-45
2022/04/13 04:36:46;;;;;;;7.67;4.30;;;9.80;94.30;;;;;;5040923;28;20223;-44
2022/04/13 04:39:13;;;;;;;5.13;3.83;;;9.80;94.50;;;;;;5062806;28;20218;-45
2022/04/13 04:41:40;;;;;;;5.60;3.97;;;9.80;94.70;;;;;;5043270;28;20215;-47
2022/04/13 04:44:07;;;;;;;4.80;3.47;;;9.70;94.80;;;;;;5052126;28;20213;-43
2022/04/13 04:46:34;;;;;;;4.63;3.80;;;9.70;95.10;;;;;;5056087;28;20199;-46
2022/04/13 04:49:02;;;;;;;4.03;3.53;;;9.70;95.30;;;;;;5040364;28;20237;-44
2022/04/13 04:51:30;;;;;;;4.50;3.47;;;9.70;95.60;;;;;;5051602;28;20271;-45
2022/04/13 04:53:58;;;;;;;5.53;4.10;;;9.70;95.60;;;;;;5053987;28;20338;-47
2022/04/13 04:56:24;;;;;;;4.73;3.67;;;9.70;95.70;;;;;;5053134;28;20223;-48
2022/04/13 04:58:51;;;;;;;5.57;4.17;;;9.70;95.80;;;;;;5041564;28;20198;-46
2022/04/13 05:01:18;;;;;;;7.20;4.00;;;9.70;95.90;;;;;;5059832;28;20214;-44
2022/04/13 05:03:48;;;;;;;8.50;4.57;;;9.60;96.00;;;;;;5042454;28;20207;-43
2022/04/13 05:06:19;;;;;;;6.47;4.27;;;9.60;96.20;;;;;;5046068;28;20725;-43
2022/04/13 05:08:46;;;;;;;9.93;4.93;;;9.70;96.30;;;;;;5046626;28;20218;-44
2022/04/13 05:11:12;;;;;;;6.10;3.90;;;9.70;96.50;;;;;;5055788;28;20222;-46
2022/04/13 05:13:39;;;;;;;5.30;4.20;;;9.70;96.40;;;;;;5039644;28;20194;-46
2022/04/13 05:16:06;;;;;;;5.23;3.77;;;9.70;96.60;;;;;;5054312;28;20214;-44
2022/04/13 05:18:33;;;;;;;7.57;4.50;;;9.70;96.90;;;;;;5054233;28;20195;-43
2022/04/13 05:21:00;;;;;;;4.90;4.40;;;9.70;97.20;;;;;;5037477;28;20226;-43
2022/04/13 05:23:28;;;;;;;10.00;4.43;;;9.70;97.20;;;;;;5047873;28;20202;-47
2022/04/13 05:25:55;;;;;;;4.60;3.77;;;9.70;97.20;;;;;;5047429;28;20257;-43
2022/04/13 05:28:21;;;;;;;5.67;4.43;;;9.70;97.30;;;;;;5043764;28;20872;-46
2022/04/13 05:30:48;;;;;;;4.77;4.23;;;9.70;97.30;;;;;;5044740;28;20290;-46
2022/04/13 05:33:15;;;;;;;8.33;4.50;;;9.80;97.50;;;;;;5057573;28;20262;-49
2022/04/13 05:35:45;;;;;;;6.97;4.17;;;9.80;97.60;;;;;;5053681;28;20791;-54
2022/04/13 05:38:12;;;;;;;5.03;4.37;;;9.80;97.80;;;;;;5042313;28;20644;-45
2022/04/13 05:40:40;;;;;;;6.33;4.20;;;9.80;97.80;;;;;;5045297;28;20237;-44
2022/04/13 05:43:07;;;;;;;7.90;4.70;;;9.80;97.80;;;;;;5060452;28;20218;-43
2022/04/13 05:45:33;;;;;;;7.70;4.60;;;9.90;98.00;;;;;;5038974;28;20218;-46
2022/04/13 05:48:00;;;;;;;7.33;4.03;;;9.90;97.90;;;;;;5049333;28;20293;-40
2022/04/13 05:50:28;;;;;;;5.00;3.77;;;9.90;97.90;;;;;;5050518;28;20222;-43
2022/04/13 05:52:54;;;;;;;6.90;4.60;;;9.90;97.70;;;;;;5032361;28;20203;-41
2022/04/13 05:55:21;;;;;;;7.33;4.40;;;10.00;97.80;;;;;;5044456;28;20521;-44
2022/04/13 05:57:49;;;;;;;4.90;4.40;;;10.00;97.80;;;;;;5053968;28;20210;-47
2022/04/13 06:00:17;;;;;;;5.33;4.43;;;10.00;97.60;;;;;;5045374;28;20198;-47
2022/04/13 06:02:43;;;;;;;6.27;4.60;;;10.10;97.80;;;;;;5051148;28;20214;-49
2022/04/13 06:05:11;;;;;;;7.23;4.70;;;10.10;97.90;;;;;;5050423;28;20199;-47
2022/04/13 06:07:38;;;;;;;7.27;4.40;;;10.10;97.90;;;;;;5034893;28;20205;-47
2022/04/13 06:10:05;;;;;;;8.50;4.70;;;10.10;97.80;;;;;;5048451;28;20203;-45
2022/04/13 06:12:33;;;;;;;8.43;4.77;;;10.20;97.60;;;;;;5051460;28;20202;-45
2022/04/13 06:15:07;;;;;;;7.87;4.53;;;10.20;97.60;;;;;;5053085;28;20203;-45
2022/04/13 06:17:34;;;;;;;6.57;5.00;;;10.20;97.60;;;;;;5047301;28;20577;-45
2022/04/13 06:20:00;;;;;;;8.43;4.90;;;10.30;97.50;;;;;;5052830;28;20214;-41
2022/04/13 06:22:31;;;;;;;6.77;4.43;;;10.30;97.70;;;;;;5050804;28;20222;-43
2022/04/13 06:24:57;;;;;;;8.27;4.67;;;10.40;97.70;;;;;;5042143;28;20211;-43
2022/04/13 06:27:24;;;;;;;6.07;4.77;;;10.40;97.40;;;;;;5054680;28;20199;-48
2022/04/13 06:29:52;;;;;;;7.90;5.30;;;10.50;97.30;;;;;;5057047;28;20193;-43
2022/04/13 06:32:21;;;;;;;5.73;4.87;;;10.60;97.20;;;;;;5048602;28;20227;-44
2022/04/13 06:34:48;;;;;;;6.50;4.70;;;10.60;97.10;;;;;;5050114;28;20198;-43
2022/04/13 06:37:15;;;;;;;5.23;4.23;;;10.70;97.00;;;;;;5049969;28;20585;-43
2022/04/13 06:39:42;;;;;;;7.57;4.93;;;10.80;96.80;;;;;;5046762;28;20647;-43
2022/04/13 06:42:09;;;;;;;8.03;5.13;;;10.90;96.70;;;;;;5056671;28;20254;-48
2022/04/13 06:44:36;;;;;;;6.87;4.80;;;11.00;96.50;;;;;;5056718;28;20275;-43
2022/04/13 06:47:03;;;;;;;9.43;5.23;;;11.10;96.30;;;;;;5052664;28;20210;-42
2022/04/13 06:49:31;;;;;;;7.83;5.10;;;11.20;96.10;;;;;;5051975;28;20213;-46
2022/04/13 06:52:00;;;;;;;9.77;5.27;;;11.30;95.60;;;;;;5045103;28;20245;-44
2022/04/13 06:54:27;;;;;;;10.97;5.43;;;11.30;94.90;;;;;;5054955;28;20190;-45
2022/04/13 06:56:54;;;;;;;6.57;5.73;;;11.40;95.00;;;;;;5045773;28;20309;-45
2022/04/13 06:59:21;;;;;;;5.73;5.10;;;11.40;95.00;;;;;;5053055;28;20225;-48
2022/04/13 07:01:48;;;;;;;6.83;5.17;;;11.50;95.10;;;;;;5058555;28;20297;-46
2022/04/13 07:04:15;;;;;;;7.37;5.57;;;11.60;95.20;;;;;;5046641;28;20202;-43
2022/04/13 07:06:43;;;;;;;7.63;5.20;;;11.70;95.10;;;;;;5054858;28;20268;-43
2022/04/13 07:09:10;;;;;;;11.30;5.57;;;11.80;95.00;;;;;;5051397;28;20199;-43
2022/04/13 07:11:36;;;;;;;7.83;5.40;;;11.80;94.30;;;;;;5041323;28;20233;-45
2022/04/13 07:14:03;;;;;;;8.40;5.23;;;11.80;94.30;;;;;;5048290;28;20703;-43
2022/04/13 07:16:30;;;;;;;7.97;5.37;;;11.90;94.50;;;;;;5053536;28;20654;-42
2022/04/13 07:18:56;;;;;;;6.40;4.90;;;11.90;94.40;;;;;;5048254;28;20206;-47
2022/04/13 07:21:24;;;;;;;7.00;5.27;;;11.90;94.20;;;;;;5043150;28;20226;-43
2022/04/13 07:23:52;;;;;;;7.63;5.60;;;11.90;94.10;;;;;;5048747;28;20195;-42
2022/04/13 07:26:19;;;;;;;7.43;5.50;;;12.00;94.20;;;;;;5057669;28;20202;-46
2022/04/13 07:28:46;;;;;;;6.50;5.47;;;12.00;94.10;;;;;;5039023;28;20285;-48
2022/04/13 07:31:13;;;;;;;6.77;5.53;;;12.00;94.20;;;;;;5049914;28;20301;-47
2022/04/13 07:33:39;;;;;;;8.53;5.50;;;12.10;94.30;;;;;;5040538;28;20661;-43
2022/04/13 07:36:07;;;;;;;7.53;5.40;;;12.10;93.90;;;;;;5056688;28;20194;-48
2022/04/13 07:38:33;;;;;;;6.87;5.67;;;12.20;93.70;;;;;;5049679;28;20708;-46
2022/04/13 07:41:02;;;;;;;8.17;5.93;;;12.30;93.50;;;;;;5046368;28;20299;-46
2022/04/13 07:43:29;;;;;;;10.63;5.70;;;12.40;93.90;;;;;;5043331;28;20207;-46
2022/04/13 07:45:56;;;;;;;7.87;5.20;;;12.40;93.20;;;;;;5055558;28;20187;-47
2022/04/13 07:48:22;;;;;;;8.17;5.00;;;12.50;93.10;;;;;;5046782;28;20569;-47
2022/04/13 07:50:50;;;;;;;8.53;5.83;;;12.60;93.10;;;;;;5041774;28;20226;-44
2022/04/13 07:53:17;;;;;;;6.20;5.17;;;12.60;93.00;;;;;;5059790;28;20207;-43
2022/04/13 07:55:43;;;;;;;8.33;5.60;;;12.70;93.10;;;;;;5045963;28;21113;-49
2022/04/13 07:58:11;;;;;;;9.53;5.43;;;12.80;93.50;;;;;;5041862;28;20234;-45
2022/04/13 08:00:38;;;;;;;11.87;5.70;;;12.90;93.40;;;;;;5053386;28;20226;-44
2022/04/13 08:03:06;;;;;;;9.27;6.40;;;13.00;92.80;;;;;;5052120;28;20454;-44
2022/04/13 08:05:33;;;;;;;8.10;5.50;;;13.10;93.10;;;;;;5052927;28;20752;-45
2022/04/13 08:08:00;;;;;;;7.00;5.20;;;13.30;93.00;;;;;;5060709;28;20194;-43
2022/04/13 08:10:27;;;;;;;9.03;5.77;;;13.30;92.70;;;;;;5058784;28;20226;-50
2022/04/13 08:12:55;;;;;;;6.43;5.50;;;13.40;92.80;;;;;;5040745;28;20205;-47
2022/04/13 08:15:24;;;;;;;7.10;5.70;;;;;;;;;;5060615;28;20645;-44
2022/04/13 08:17:51;;;;;;;8.10;5.97;;;13.70;92.00;;;;;;5050781;28;20219;-44
2022/04/13 08:20:18;;;;;;;7.43;5.93;;;13.90;92.30;;;;;;5048222;28;20217;-46
2022/04/13 08:22:47;;;;;;;8.57;5.90;;;14.00;92.00;;;;;;5051230;28;20194;-47
2022/04/13 08:25:14;;;;;;;8.63;5.60;;;14.10;91.70;;;;;;5052269;28;20198;-45
2022/04/13 08:27:40;;;;;;;7.20;5.87;;;14.20;91.70;;;;;;5057030;28;20195;-44
2022/04/13 08:30:08;;;;;;;7.17;5.63;;;14.20;91.10;;;;;;5049420;28;20190;-46
2022/04/13 08:32:37;;;;;;;8.37;5.93;;;14.30;91.20;;;;;;5054335;28;20697;-46
2022/04/13 08:35:05;;;;;;;7.97;6.00;;;14.40;91.10;;;;;;5044689;28;21376;-49
2022/04/13 08:37:33;;;;;;;8.87;5.87;;;14.40;90.60;;;;;;5055588;28;20203;-47
2022/04/13 08:40:00;;;;;;;7.33;5.67;;;14.50;90.30;;;;;;5049572;28;20191;-49
2022/04/13 08:42:35;;;;;;;9.23;6.20;;;14.60;90.60;;;;;;5059652;28;20210;-44
2022/04/13 08:45:09;;;;;;;9.90;6.40;;;14.70;90.40;;;;;;5040420;28;20480;-45
2022/04/13 08:47:42;;;;;;;7.60;5.57;;;14.70;90.70;;;;;;5057204;28;20206;-46
2022/04/13 08:50:11;;;;;;;7.67;6.23;;;14.70;90.70;;;;;;5052548;28;20210;-45
2022/04/13 08:52:40;;;;;;;11.70;5.83;;;14.80;90.90;;;;;;5058925;28;20241;-47
2022/04/13 08:55:09;;;;;;;11.23;5.90;;;14.80;91.00;;;;;;5055090;28;20191;-45
2022/04/13 08:57:38;;;;;;;8.00;5.77;;;14.70;90.40;;;;;;5053398;28;20708;-47
2022/04/13 09:00:13;;;;;;;10.20;6.17;;;14.80;90.80;;;;;;5045241;28;20198;-45
2022/04/13 09:02:53;;;;;;;7.37;5.80;;;14.90;91.00;;;;;;5053879;28;20198;-46
2022/04/13 09:05:24;;;;;;;14.20;7.83;;;15.00;91.00;;;;;;5057163;28;20212;-43
2022/04/13 09:08:05;;;;;;;9.93;6.73;;;15.20;90.80;;;;;;5050620;28;20277;-44
2022/04/13 09:10:33;;;;;;;8.33;6.07;;;15.30;90.60;;;;;;5055205;28;20279;-45
2022/04/13 09:13:00;;;;;;;10.77;6.50;;;15.40;90.20;;;;;;5055029;28;20190;-43
2022/04/13 09:15:27;;;;;;;9.27;6.77;;;15.40;90.30;;;;;;5049814;28;20568;-45
2022/04/13 09:17:56;;;;;;;10.30;6.27;;;15.50;90.00;;;;;;5049303;28;20390;-46
2022/04/13 09:20:23;;;;;;;10.23;6.43;;;15.50;89.90;;;;;;5062166;28;20194;-44
2022/04/13 09:22:53;;;;;;;7.83;6.17;;;15.60;89.60;;;;;;5040006;28;20194;-47
2022/04/13 09:25:21;;;;;;;14.67;8.67;;;15.60;90.00;;;;;;5058216;28;20210;-44
2022/04/13 09:27:49;;;;;;;9.67;7.20;;;15.80;89.10;;;;;;5051371;28;20203;-46
2022/04/13 09:30:15;;;;;;;12.00;6.50;;;16.00;89.00;;;;;;5043030;28;20203;-43
2022/04/13 09:32:43;;;;;;;15.50;8.80;;;16.10;88.40;;;;;;5051434;28;20206;-46
2022/04/13 09:35:12;;;;;;;13.10;6.97;;;16.10;87.60;;;;;;5059777;28;20206;-46
2022/04/13 09:37:40;;;;;;;9.40;6.37;;;16.20;88.20;;;;;;5054083;28;20226;-48
2022/04/13 09:40:07;;;;;;;13.43;7.67;;;16.30;89.10;;;;;;5050022;28;20198;-43
2022/04/13 09:42:36;;;;;;;8.10;6.60;;;16.40;94.90;;;;;;5041627;28;20207;-46
2022/04/13 09:45:03;;;;;;;14.33;7.47;;;16.80;99.90;;;;;;5040666;28;21740;-44
2022/04/13 09:47:32;;;;;;;14.27;8.20;;;16.60;99.90;;;;;;5060011;28;20661;-45
2022/04/13 09:49:58;;;;;;;9.47;7.40;;;16.70;99.90;;;;;;5048322;28;20199;-43
2022/04/13 09:52:33;;;;;;;13.17;7.20;;;16.70;99.90;;;;;;5048547;28;20230;-43
2022/04/13 09:55:01;;;;;;;14.73;7.57;;;;;;;;;;5047852;28;20198;-44
2022/04/13 09:57:28;;;;;;;9.23;6.90;;;16.80;99.90;;;;;;5049318;28;20680;-45
2022/04/13 09:59:56;;;;;;;13.53;7.20;;;16.80;87.90;;;;;;5048445;28;20209;-45
2022/04/13 10:02:36;;;;;;;11.83;7.33;;;16.90;88.50;;;;;;5043763;28;20243;-45
2022/04/13 10:05:05;;;;;;;9.93;6.90;;;17.10;88.60;;;;;;5042229;28;20206;-45
2022/04/13 10:07:33;;;;;;;11.60;7.20;;;17.20;88.50;;;;;;5056275;28;20656;-46
2022/04/13 10:10:00;;;;;;;13.53;7.47;;;17.30;89.00;;;;;;5051803;28;20206;-46
2022/04/13 10:12:27;;;;;;;11.57;7.47;;;17.30;87.30;;;;;;5056433;28;20215;-45
2022/04/13 10:15:07;;;;;;;15.60;9.07;;;17.40;87.50;;;;;;5047929;28;20269;-44
2022/04/13 10:17:34;;;;;;;9.53;7.37;;;17.40;87.00;;;;;;5044063;28;20223;-45
2022/04/13 10:20:01;;;;;;;10.13;7.57;;;17.40;86.80;;;;;;5045666;28;20214;-44
2022/04/13 10:22:28;;;;;;;9.77;7.50;;;17.30;86.90;;;;;;5060427;28;20225;-44
2022/04/13 10:24:56;;;;;;;10.53;7.67;;;17.40;88.20;;;;;;5041400;28;20202;-44
2022/04/13 10:27:27;;;;;;;12.77;7.87;;;17.40;87.70;;;;;;5053790;28;20256;-43
2022/04/13 10:29:54;;;;;;;13.73;7.80;;;17.40;85.80;;;;;;5043345;28;20217;-43
2022/04/13 10:32:24;;;;;;;13.33;8.50;;;17.40;86.60;;;;;;5049063;28;20215;-44
2022/04/13 10:34:52;;;;;;;12.80;7.93;;;17.40;86.40;;;;;;5052909;28;20195;-46
2022/04/13 10:37:21;;;;;;;11.37;7.83;;;17.40;86.00;;;;;;5052137;28;20225;-43
2022/04/13 10:39:48;;;;;;;15.93;8.83;;;17.50;86.10;;;;;;5043755;28;20210;-46
2022/04/13 10:42:18;;;;;;;14.87;8.33;;;17.50;86.60;;;;;;5058657;28;20218;-45
2022/04/13 10:44:51;;;;;;;13.20;8.77;;;17.60;87.00;;;;;;5044488;28;20210;-46
2022/04/13 10:47:25;;;;;;;15.87;8.07;;;17.70;86.90;;;;;;5051157;28;20218;-45
2022/04/13 10:49:56;;;;;;;13.20;8.77;;;17.70;86.20;;;;;;5043201;28;20348;-46
2022/04/13 10:52:29;;;;;;;10.50;7.40;;;17.70;86.70;;;;;;5050082;28;20229;-43
2022/04/13 10:55:02;;;;;;;12.83;7.80;;;17.80;86.90;;;;;;5049385;28;20358;-44
2022/04/13 10:57:37;;;;;;;16.97;8.57;;;18.00;85.30;;;;;;5056790;28;20207;-48
2022/04/13 11:00:06;;;;;;;12.20;8.07;;;18.00;84.90;;;;;;5052171;28;22911;-47
2022/04/13 11:02:43;;;;;;;15.63;8.47;;;18.20;84.60;;;;;;5059967;28;20195;-47
2022/04/13 11:05:09;;;;;;;14.17;8.57;;;18.20;82.90;;;;;;5044120;28;20840;-44
2022/04/13 11:07:38;;;;;;;11.50;8.40;;;18.20;83.40;;;;;;5054426;28;20226;-44
2022/04/13 11:10:11;;;;;;;11.07;8.27;;;18.30;82.80;;;;;;5048961;28;20199;-44
2022/04/13 11:12:39;;;;;;;14.67;9.03;;;18.40;83.00;;;;;;5054881;28;20235;-45
2022/04/13 11:15:07;;;;;;;12.10;7.87;;;18.40;82.00;;;;;;5053093;28;20203;-46
2022/04/13 11:17:41;;;;;;;12.87;8.97;;;18.60;83.30;;;;;;5054830;28;20767;-42
2022/04/13 11:20:22;;;;;;;16.13;9.23;;;18.70;83.20;;;;;;5047403;28;20308;-45
2022/04/13 11:23:07;;;;;;;11.77;8.60;;;18.90;81.70;;;;;;5047145;28;20201;-45
2022/04/13 11:25:47;;;;;;;10.83;8.47;;;19.00;82.20;;;;;;5051121;28;20203;-47
2022/04/13 11:28:28;;;;;;;15.63;8.93;;;19.20;80.80;;;;;;5057992;28;20229;-44
2022/04/13 11:31:03;;;;;;;15.83;9.30;;;19.20;81.40;;;;;;5050955;28;20226;-49
2022/04/13 11:33:57;;;;;;;16.50;8.90;;;19.30;81.10;;;;;;5059022;28;20205;-45
2022/04/13 11:36:28;;;;;;;16.97;9.53;;;19.40;81.90;;;;;;5042380;28;20199;-44
2022/04/13 11:38:55;;;;;;;15.80;9.87;;;19.60;82.70;;;;;;5055676;28;20215;-43
2022/04/13 11:41:23;;;;;;;17.13;9.70;;;19.60;81.90;;;;;;5050580;28;20238;-46
2022/04/13 11:43:51;;;;;;;16.23;9.13;;;19.70;81.10;;;;;;5052105;28;20203;-44
2022/04/13 11:46:37;;;;;;;17.47;9.97;;;19.80;81.10;;;;;;5057536;28;20305;-43
2022/04/13 11:49:04;;;;;;;15.67;9.50;;;20.10;81.10;;;;;;5052113;28;20198;-45
2022/04/13 11:51:32;;;;;;;17.00;9.33;;;20.10;80.60;;;;;;5057184;28;20310;-44
2022/04/13 11:54:08;;;;;;;22.17;10.80;;;20.00;80.50;;;;;;5043459;28;20206;-45
2022/04/13 11:56:36;;;;;;;19.13;10.13;;;20.10;80.40;;;;;;5054153;28;20206;-44
2022/04/13 11:59:05;;;;;;;19.20;10.93;;;20.30;80.00;;;;;;5060562;28;20211;-45
2022/04/13 12:01:33;;;;;;;18.97;10.30;;;20.40;80.40;;;;;;5056601;28;20218;-46
2022/04/13 12:04:05;;;;;;;17.53;10.70;;;20.40;78.20;;;;;;5053549;28;20198;-48
2022/04/13 12:06:33;;;;;;;18.13;10.07;;;20.40;78.50;;;;;;5058892;28;20919;-43
2022/04/13 12:09:00;;;;;;;24.10;10.70;;;20.40;77.80;;;;;;5045642;28;20194;-45
2022/04/13 12:11:40;;;;;;;18.27;10.60;;;20.40;78.70;;;;;;5053702;28;20219;-43
2022/04/13 12:14:09;;;;;;;19.83;9.17;;;20.60;80.70;;;;;;5056651;28;20194;-46
2022/04/13 12:16:38;;;;;;;24.10;10.37;;;20.80;80.70;;;;;;5055565;28;20253;-46
2022/04/13 12:19:06;;;;;;;17.17;9.23;;;20.80;78.40;;;;;;5052634;28;20233;-44
2022/04/13 12:21:36;;;;;;;23.20;10.60;;;20.90;79.60;;;;;;5050873;28;20242;-46
2022/04/13 12:24:04;;;;;;;20.67;11.03;;;20.90;78.20;;;;;;5045123;28;20214;-45
2022/04/13 12:26:33;;;;;;;18.83;10.37;;;20.80;77.60;;;;;;5046173;28;20786;-44
2022/04/13 12:29:01;;;;;;;19.43;11.50;;;20.80;79.50;;;;;;5059841;28;20190;-44
2022/04/13 12:31:29;;;;;;;19.20;10.90;;;21.00;79.80;;;;;;5058790;28;20696;-45
2022/04/13 12:34:01;;;;;;;17.13;9.27;;;21.20;79.80;;;;;;5049390;28;20565;-43
2022/04/13 12:36:28;;;;;;;18.43;10.23;;;21.30;79.10;;;;;;5063146;28;20297;-48
2022/04/13 12:38:57;;;;;;;19.80;9.83;;;21.50;81.00;;;;;;5045515;28;20971;-46
2022/04/13 12:41:27;;;;;;;17.40;9.23;;;21.60;80.10;;;;;;5054036;28;20226;-46
2022/04/13 12:43:56;;;;;;;21.17;8.97;;;21.70;80.30;;;;;;5048105;28;20913;-47
2022/04/13 12:46:24;;;;;;;15.63;9.70;;;21.80;78.60;;;;;;5055004;28;20297;-45
2022/04/13 12:48:54;;;;;;;20.60;9.83;;;21.70;76.80;;;;;;5057063;28;20554;-44
2022/04/13 12:51:23;;;;;;;18.40;10.32;;;21.50;76.40;;;;;;5049678;28;20228;-46